createdAt,value
2022-09-13T00:01:36.054Z,12.24
2022-09-13T00:04:39.019Z,12.20
2022-09-13T00:07:41.592Z,12.15
2022-09-13T00:10:45.578Z,12.21
2022-09-13T00:13:48.238Z,12.14
2022-09-13T00:16:51.171Z,12.09
2022-09-13T00:19:53.682Z,12.03
2022-09-13T00:22:56.493Z,11.94
2022-09-13T00:26:06.747Z,11.84
2022-09-13T00:29:09.643Z,11.86
2022-09-13T00:32:12.453Z,11.95
2022-09-13T00:35:15.334Z,11.96
2022-09-13T00:38:17.904Z,12.00
2022-09-13T00:41:21.174Z,12.05
2022-09-13T00:44:49.863Z,12.00
2022-09-13T00:48:02.426Z,11.97
2022-09-13T00:51:08.569Z,11.96
2022-09-13T00:54:15.310Z,11.89
2022-09-13T00:57:21.784Z,11.77
2022-09-13T01:00:24.749Z,11.56
2022-09-13T01:03:31.008Z,11.52
2022-09-13T01:06:36.371Z,11.46
2022-09-13T01:09:44.907Z,11.39
2022-09-13T01:13:04.769Z,11.37
2022-09-13T01:16:07.430Z,11.42
2022-09-13T01:19:10.386Z,11.45
2022-09-13T01:22:31.013Z,11.39
2022-09-13T01:26:11.687Z,11.34
2022-09-13T01:29:35.759Z,11.38
2022-09-13T01:33:06.362Z,11.41
2022-09-13T01:36:18.493Z,11.36
2022-09-13T01:39:54.856Z,11.27
2022-09-13T01:43:03.384Z,11.11
2022-09-13T01:46:26.512Z,11.08
2022-09-13T01:49:36.846Z,11.10
2022-09-13T01:53:08.552Z,11.04
2022-09-13T01:56:36.841Z,11.18
2022-09-13T01:59:50.284Z,11.17
2022-09-13T02:03:04.544Z,11.22
2022-09-13T02:06:14.036Z,11.05
2022-09-13T02:09:24.676Z,11.13
2022-09-13T02:12:30.959Z,11.14
2022-09-13T02:15:48.711Z,11.06
2022-09-13T02:18:59.095Z,11.11
2022-09-13T02:22:06.308Z,11.03
2022-09-13T02:25:19.368Z,11.01
2022-09-13T02:28:28.943Z,10.89
2022-09-13T02:31:37.691Z,10.76
2022-09-13T02:34:48.405Z,10.86
2022-09-13T02:38:00.877Z,10.91
2022-09-13T02:41:22.998Z,10.70
2022-09-13T02:44:37.954Z,10.60
2022-09-13T02:47:58.087Z,10.50
2022-09-13T02:51:30.555Z,10.21
2022-09-13T02:54:40.937Z,10.31
2022-09-13T02:57:55.625Z,10.45
2022-09-13T03:00:58.329Z,10.47
2022-09-13T03:04:01.245Z,10.57
2022-09-13T03:07:06.123Z,10.57
2022-09-13T03:10:13.524Z,10.57
2022-09-13T03:13:37.775Z,10.71
2022-09-13T03:17:28.750Z,10.73
2022-09-13T03:20:35.269Z,10.60
2022-09-13T03:24:11.325Z,10.44
2022-09-13T03:27:46.452Z,10.55
2022-09-13T03:31:11.281Z,10.50
2022-09-13T03:34:25.056Z,10.39
2022-09-13T03:37:35.149Z,10.43
2022-09-13T03:40:46.079Z,10.45
2022-09-13T03:43:52.555Z,10.35
2022-09-13T03:47:00.058Z,10.33
2022-09-13T03:50:06.566Z,10.08
2022-09-13T03:53:12.083Z,10.13
2022-09-13T03:56:17.703Z,10.09
2022-09-13T03:59:20.563Z,10.07
2022-09-13T04:02:25.657Z,10.05
2022-09-13T04:05:28.582Z,10.15
2022-09-13T04:08:34.632Z,10.19
2022-09-13T04:11:39.343Z,10.23
2022-09-13T04:14:43.884Z,10.21
2022-09-13T04:17:46.699Z,10.24
2022-09-13T04:20:58.370Z,10.25
2022-09-13T04:24:01.212Z,10.26
2022-09-13T04:27:04.932Z,10.04
2022-09-13T04:30:08.337Z,9.91
2022-09-13T04:33:10.913Z,9.91
2022-09-13T04:36:14.078Z,10.04
2022-09-13T04:39:16.834Z,10.12
2022-09-13T04:42:19.696Z,10.16
2022-09-13T04:45:22.447Z,10.16
2022-09-13T04:48:25.367Z,10.19
2022-09-13T04:51:27.951Z,10.22
2022-09-13T04:54:31.317Z,10.24
2022-09-13T04:57:34.188Z,10.30
2022-09-13T05:00:37.511Z,10.31
2022-09-13T05:03:40.068Z,10.35
2022-09-13T05:06:42.987Z,10.44
2022-09-13T05:09:45.571Z,10.53
2022-09-13T05:12:49.008Z,10.62
2022-09-13T05:15:55.684Z,10.72
2022-09-13T05:18:59.509Z,10.78
2022-09-13T05:22:03.053Z,10.87
2022-09-13T05:25:06.722Z,10.93
2022-09-13T05:28:09.648Z,11.05
2022-09-13T05:31:19.991Z,11.26
2022-09-13T05:34:22.701Z,11.31
2022-09-13T05:37:25.656Z,11.44
2022-09-13T05:40:28.325Z,11.54
2022-09-13T05:43:34.942Z,11.71
2022-09-13T05:46:37.904Z,11.82
2022-09-13T05:49:56.733Z,12.08
2022-09-13T05:53:04.356Z,12.28
2022-09-13T05:56:11.367Z,12.58
2022-09-13T05:59:15.984Z,12.70
2022-09-13T06:02:18.900Z,12.88
2022-09-13T06:05:21.895Z,13.06
2022-09-13T06:08:26.344Z,13.30
2022-09-13T06:11:29.320Z,13.42
2022-09-13T06:14:31.896Z,13.63
2022-09-13T06:17:34.998Z,13.79
2022-09-13T06:20:37.520Z,13.85
2022-09-13T06:23:40.402Z,14.00
2022-09-13T06:26:42.959Z,14.10
2022-09-13T06:29:46.023Z,14.43
2022-09-13T06:32:48.562Z,14.39
2022-09-13T06:35:51.373Z,14.54
2022-09-13T06:38:54.169Z,14.61
2022-09-13T06:41:57.001Z,14.78
2022-09-13T06:45:00.695Z,14.82
2022-09-13T06:48:03.689Z,15.12
2022-09-13T06:51:15.478Z,15.27
2022-09-13T06:54:18.324Z,15.25
2022-09-13T06:57:21.040Z,15.36
2022-09-13T07:00:24.922Z,15.37
2022-09-13T07:03:28.024Z,15.41
2022-09-13T07:06:35.694Z,15.63
2022-09-13T07:09:38.437Z,15.71
2022-09-13T07:12:42.296Z,15.72
2022-09-13T07:15:45.007Z,15.88
2022-09-13T07:18:53.359Z,15.94
2022-09-13T07:21:57.348Z,16.17
2022-09-13T07:25:01.635Z,16.28
2022-09-13T07:28:04.291Z,16.43
2022-09-13T07:31:16.029Z,16.52
2022-09-13T07:34:21.115Z,16.64
2022-09-13T07:37:24.212Z,16.65
2022-09-13T07:40:27.330Z,16.89
2022-09-13T07:43:30.386Z,17.03
2022-09-13T07:46:36.366Z,17.04
2022-09-13T07:49:39.298Z,17.18
2022-09-13T07:52:42.040Z,17.10
2022-09-13T07:55:44.960Z,17.13
2022-09-13T07:58:49.913Z,17.10
2022-09-13T08:01:53.120Z,17.17
2022-09-13T08:04:55.969Z,17.21
2022-09-13T08:07:58.601Z,17.40
2022-09-13T08:11:03.075Z,17.58
2022-09-13T08:14:08.630Z,17.54
2022-09-13T08:17:11.457Z,17.69
2022-09-13T08:20:14.499Z,17.77
2022-09-13T08:23:17.584Z,17.69
2022-09-13T08:26:20.136Z,17.94
2022-09-13T08:29:25.295Z,17.98
2022-09-13T08:32:28.140Z,18.16
2022-09-13T08:35:31.983Z,18.04
2022-09-13T08:38:34.658Z,18.07
2022-09-13T08:41:40.223Z,18.24
2022-09-13T08:44:47.734Z,18.30
2022-09-13T08:47:57.198Z,18.52
2022-09-13T08:51:08.009Z,18.70
2022-09-13T08:54:16.953Z,18.53
2022-09-13T08:57:23.394Z,18.57
2022-09-13T09:00:41.015Z,18.78
2022-09-13T09:03:54.173Z,18.71
2022-09-13T09:07:10.757Z,18.93
2022-09-13T09:10:21.891Z,18.94
2022-09-13T09:13:38.049Z,19.26
2022-09-13T09:16:51.412Z,19.46
2022-09-13T09:20:18.515Z,19.62
2022-09-13T09:23:24.982Z,19.41
2022-09-13T09:26:30.854Z,19.64
2022-09-13T09:29:36.620Z,19.61
2022-09-13T09:32:47.248Z,19.62
2022-09-13T09:36:16.100Z,19.93
2022-09-13T09:39:19.199Z,19.92
2022-09-13T09:42:28.644Z,20.02
2022-09-13T09:45:35.028Z,19.85
2022-09-13T09:48:45.040Z,19.86
2022-09-13T09:51:48.759Z,20.08
2022-09-13T09:54:51.734Z,20.31
2022-09-13T09:58:00.739Z,20.43
2022-09-13T10:01:08.456Z,20.45
2022-09-13T10:04:23.802Z,20.47
2022-09-13T10:07:35.020Z,20.85
2022-09-13T10:10:52.851Z,20.99
2022-09-13T10:14:07.350Z,21.20
2022-09-13T10:17:28.675Z,21.26
2022-09-13T10:20:32.804Z,21.52
2022-09-13T10:23:37.075Z,21.55
2022-09-13T10:26:39.722Z,21.66
2022-09-13T10:29:48.972Z,21.31
2022-09-13T10:32:58.434Z,21.24
2022-09-13T10:36:05.838Z,21.23
2022-09-13T10:39:17.821Z,21.20
2022-09-13T10:42:24.227Z,21.57
2022-09-13T10:45:31.293Z,21.68
2022-09-13T10:48:55.920Z,21.47
2022-09-13T10:51:58.512Z,21.75
2022-09-13T10:55:19.772Z,21.90
2022-09-13T10:58:23.827Z,22.12
2022-09-13T11:01:44.389Z,21.99
2022-09-13T11:05:14.804Z,22.08
2022-09-13T11:08:39.656Z,22.27
2022-09-13T11:12:00.181Z,22.64
2022-09-13T11:15:16.151Z,22.58
2022-09-13T11:18:57.084Z,22.30
2022-09-13T11:22:21.563Z,21.71
2022-09-13T11:25:54.917Z,21.88
2022-09-13T11:29:21.038Z,21.99
2022-09-13T11:32:43.627Z,22.28
2022-09-13T11:36:17.102Z,22.19
2022-09-13T11:39:38.779Z,22.54
2022-09-13T11:43:21.189Z,22.52
2022-09-13T11:46:32.436Z,22.85
2022-09-13T11:49:53.205Z,22.88
2022-09-13T11:53:04.922Z,22.68
2022-09-13T11:56:24.349Z,22.65
2022-09-13T11:59:43.362Z,22.59
2022-09-13T12:02:59.635Z,22.67
2022-09-13T12:06:08.092Z,22.37
2022-09-13T12:09:40.488Z,22.48
2022-09-13T12:12:50.401Z,22.76
2022-09-13T12:16:01.077Z,22.93
2022-09-13T12:19:22.673Z,22.80
2022-09-13T12:22:31.082Z,23.06
2022-09-13T12:25:44.357Z,23.15
2022-09-13T12:28:53.716Z,23.42
2022-09-13T12:32:02.251Z,23.38
2022-09-13T12:35:32.649Z,22.95
2022-09-13T12:39:00.604Z,23.23
2022-09-13T12:42:18.209Z,23.21
2022-09-13T12:45:37.715Z,23.01
2022-09-13T12:49:01.676Z,23.53
2022-09-13T12:52:26.975Z,23.59
2022-09-13T12:55:53.318Z,22.96
2022-09-13T12:59:20.758Z,23.30
2022-09-13T13:02:43.844Z,23.66
2022-09-13T13:05:56.401Z,23.52
2022-09-13T13:09:04.593Z,23.34
2022-09-13T13:12:09.438Z,22.89
2022-09-13T13:15:15.327Z,22.91
2022-09-13T13:18:44.044Z,23.04
2022-09-13T13:21:46.983Z,23.23
2022-09-13T13:24:49.893Z,23.33
2022-09-13T13:27:55.188Z,23.45
2022-09-13T13:30:59.146Z,23.50
2022-09-13T13:34:11.189Z,23.59
2022-09-13T13:37:13.940Z,23.75
2022-09-13T13:40:26.164Z,23.74
2022-09-13T13:43:30.838Z,23.41
2022-09-13T13:46:33.590Z,23.09
2022-09-13T13:49:39.607Z,23.30
2022-09-13T13:52:48.086Z,23.42
2022-09-13T13:56:15.913Z,23.30
2022-09-13T13:59:33.035Z,23.22
2022-09-13T14:02:41.554Z,23.26
2022-09-13T14:05:53.839Z,23.29
2022-09-13T14:09:09.539Z,22.75
2022-09-13T14:12:18.856Z,23.22
2022-09-13T14:15:30.456Z,23.13
2022-09-13T14:18:48.943Z,23.03
2022-09-13T14:22:16.755Z,22.96
2022-09-13T14:25:19.616Z,23.09
2022-09-13T14:28:23.640Z,22.95
2022-09-13T14:31:26.941Z,22.86
2022-09-13T14:34:34.150Z,23.03
2022-09-13T14:37:39.766Z,22.96
2022-09-13T14:40:49.280Z,22.85
2022-09-13T14:43:52.385Z,22.65
2022-09-13T14:47:06.407Z,22.80
2022-09-13T14:50:16.430Z,22.80
2022-09-13T14:53:25.126Z,22.52
2022-09-13T14:56:38.411Z,22.56
2022-09-13T14:59:50.511Z,22.38
2022-09-13T15:02:59.209Z,22.17
2022-09-13T15:06:05.334Z,22.04
2022-09-13T15:09:11.530Z,21.84
2022-09-13T15:12:26.744Z,21.97
2022-09-13T15:15:35.696Z,21.94
2022-09-13T15:18:38.674Z,21.91
2022-09-13T15:21:41.722Z,21.91
2022-09-13T15:24:54.248Z,21.92
2022-09-13T15:27:58.050Z,21.89
2022-09-13T15:31:02.177Z,21.84
2022-09-13T15:34:17.914Z,21.59
2022-09-13T15:37:30.186Z,21.52
2022-09-13T15:40:43.067Z,21.32
2022-09-13T15:43:48.610Z,21.14
2022-09-13T15:46:55.174Z,21.00
2022-09-13T15:49:58.882Z,20.88
2022-09-13T15:53:01.995Z,20.83
2022-09-13T15:56:05.782Z,20.77
2022-09-13T15:59:14.007Z,20.64
2022-09-13T16:02:36.793Z,20.57
2022-09-13T16:05:40.620Z,20.52
2022-09-13T16:08:43.232Z,20.37
2022-09-13T16:11:47.508Z,20.16
2022-09-13T16:14:51.730Z,20.04
2022-09-13T16:17:54.697Z,20.05
2022-09-13T16:20:57.657Z,19.86
2022-09-13T16:24:00.258Z,19.68
2022-09-13T16:27:03.711Z,19.55
2022-09-13T16:30:07.217Z,19.20
2022-09-13T16:33:10.089Z,19.33
2022-09-13T16:36:12.981Z,19.27
2022-09-13T16:39:15.897Z,19.03
2022-09-13T16:42:18.595Z,18.97
2022-09-13T16:45:22.023Z,18.87
2022-09-13T16:48:24.946Z,18.80
2022-09-13T16:51:28.050Z,18.63
2022-09-13T16:54:31.117Z,18.53
2022-09-13T16:57:34.557Z,18.18
2022-09-13T17:00:37.145Z,18.15
2022-09-13T17:03:40.875Z,18.08
2022-09-13T17:06:43.486Z,17.94
2022-09-13T17:09:50.326Z,17.71
2022-09-13T17:12:52.931Z,17.60
2022-09-13T17:15:56.798Z,17.59
2022-09-13T17:19:12.048Z,17.61
2022-09-13T17:22:16.477Z,17.55
2022-09-13T17:25:20.879Z,17.40
2022-09-13T17:28:23.784Z,17.28
2022-09-13T17:31:26.682Z,17.13
2022-09-13T17:34:30.795Z,17.17
2022-09-13T17:37:33.554Z,16.79
2022-09-13T17:40:36.646Z,16.87
2022-09-13T17:43:40.335Z,16.85
2022-09-13T17:46:43.646Z,16.78
2022-09-13T17:49:47.805Z,16.73
2022-09-13T17:52:51.610Z,16.63
2022-09-13T17:55:54.212Z,16.57
2022-09-13T17:59:07.892Z,16.42
2022-09-13T18:02:12.453Z,16.18
2022-09-13T18:05:15.591Z,16.25
2022-09-13T18:08:18.400Z,16.23
2022-09-13T18:11:22.544Z,16.12
2022-09-13T18:14:27.659Z,16.22
2022-09-13T18:17:30.577Z,16.27
2022-09-13T18:20:35.342Z,16.24
2022-09-13T18:23:41.613Z,15.86
2022-09-13T18:26:44.214Z,16.13
2022-09-13T18:29:47.323Z,16.12
2022-09-13T18:32:50.335Z,16.15
2022-09-13T18:35:57.689Z,16.05
2022-09-13T18:39:02.960Z,15.97
2022-09-13T18:42:06.177Z,15.90
2022-09-13T18:45:10.076Z,15.79
2022-09-13T18:48:13.051Z,15.68
2022-09-13T18:51:18.327Z,15.75
2022-09-13T18:54:21.408Z,15.68
2022-09-13T18:57:24.021Z,15.58
2022-09-13T19:00:28.541Z,15.53
2022-09-13T19:03:32.135Z,15.53
2022-09-13T19:06:42.031Z,15.31
2022-09-13T19:09:44.795Z,15.26
2022-09-13T19:12:47.734Z,15.36
2022-09-13T19:15:50.365Z,15.21
2022-09-13T19:18:53.578Z,15.23
2022-09-13T19:21:56.185Z,15.18
2022-09-13T19:24:59.020Z,15.11
2022-09-13T19:28:01.879Z,15.15
2022-09-13T19:31:10.473Z,15.20
2022-09-13T19:34:14.814Z,15.03
2022-09-13T19:37:19.507Z,15.08
2022-09-13T19:40:23.045Z,15.02
2022-09-13T19:43:28.505Z,14.87
2022-09-13T19:46:39.902Z,14.86
2022-09-13T19:49:43.223Z,14.86
2022-09-13T19:52:45.807Z,14.74
2022-09-13T19:55:48.819Z,14.57
2022-09-13T19:58:51.738Z,14.69
2022-09-13T20:01:54.758Z,14.68
2022-09-13T20:04:57.878Z,14.47
2022-09-13T20:08:01.155Z,14.56
2022-09-13T20:11:09.599Z,14.50
2022-09-13T20:14:14.570Z,14.49
2022-09-13T20:17:17.550Z,14.51
2022-09-13T20:20:20.921Z,14.51
2022-09-13T20:23:24.613Z,14.33
2022-09-13T20:26:27.493Z,14.41
2022-09-13T20:29:31.625Z,14.34
2022-09-13T20:32:34.393Z,14.34
2022-09-13T20:35:37.354Z,14.32
2022-09-13T20:38:41.068Z,14.27
2022-09-13T20:41:44.325Z,14.29
2022-09-13T20:44:47.197Z,14.35
2022-09-13T20:47:50.095Z,14.21
2022-09-13T20:50:57.617Z,14.26
2022-09-13T20:54:00.783Z,14.29
2022-09-13T20:57:03.546Z,14.29
2022-09-13T21:00:07.764Z,14.33
2022-09-13T21:03:11.163Z,14.34
2022-09-13T21:06:14.127Z,14.50
2022-09-13T21:09:17.379Z,14.65
2022-09-13T21:12:20.296Z,14.70
2022-09-13T21:15:22.990Z,14.73
2022-09-13T21:18:25.915Z,14.84
2022-09-13T21:21:30.827Z,14.82
2022-09-13T21:24:33.978Z,14.87
2022-09-13T21:27:36.632Z,14.85
2022-09-13T21:30:40.961Z,14.86
2022-09-13T21:33:44.429Z,15.01
2022-09-13T21:36:47.882Z,15.03
2022-09-13T21:39:50.652Z,15.05
2022-09-13T21:42:53.608Z,14.99
2022-09-13T21:46:06.706Z,15.01
2022-09-13T21:49:12.521Z,15.07
2022-09-13T21:52:15.077Z,14.94
2022-09-13T21:55:17.937Z,15.06
2022-09-13T21:58:21.098Z,15.02
2022-09-13T22:01:25.235Z,14.95
2022-09-13T22:04:28.410Z,14.98
2022-09-13T22:07:30.948Z,15.08
2022-09-13T22:10:36.186Z,15.08
2022-09-13T22:13:46.139Z,15.11
2022-09-13T22:16:50.433Z,15.09
2022-09-13T22:19:52.982Z,15.04
2022-09-13T22:22:55.815Z,15.03
2022-09-13T22:25:58.380Z,15.17
2022-09-13T22:29:01.617Z,15.15
2022-09-13T22:32:04.312Z,15.18
2022-09-13T22:35:09.648Z,15.07
2022-09-13T22:38:12.226Z,15.15
2022-09-13T22:41:18.333Z,15.14
2022-09-13T22:44:21.156Z,15.17
2022-09-13T22:47:24.032Z,15.20
2022-09-13T22:50:26.629Z,15.23
2022-09-13T22:53:31.875Z,15.28
2022-09-13T22:56:35.949Z,15.33
2022-09-13T22:59:38.873Z,15.35
2022-09-13T23:02:46.483Z,15.30
2022-09-13T23:05:51.462Z,15.30
2022-09-13T23:08:57.961Z,15.24
2022-09-13T23:12:00.851Z,15.04
2022-09-13T23:15:03.641Z,15.27
2022-09-13T23:21:09.664Z,15.19
2022-09-13T23:24:17.551Z,15.10
2022-09-13T23:27:20.889Z,15.07
2022-09-13T23:30:25.843Z,15.05
2022-09-13T23:33:28.372Z,15.08
2022-09-13T23:36:34.659Z,15.09
2022-09-13T23:39:37.744Z,15.05
2022-09-13T23:42:40.636Z,15.02
2022-09-13T23:45:43.699Z,15.04
2022-09-13T23:48:46.805Z,14.87
2022-09-13T23:51:49.563Z,14.94
2022-09-13T23:54:52.458Z,14.87
2022-09-13T23:57:55.021Z,14.81
